createdAt,value
2022-08-09T00:00:57.862Z,102336.31
2022-08-09T00:04:05.590Z,102331.94
2022-08-09T00:06:19.654Z,102318.03
2022-08-09T00:08:52.006Z,102321.34
2022-08-09T00:11:24.810Z,102322.50
2022-08-09T00:13:53.549Z,102324.81
2022-08-09T00:16:26.416Z,102315.63
2022-08-09T00:19:09.400Z,102323.44
2022-08-09T00:21:55.609Z,102327.38
2022-08-09T00:24:25.049Z,102320.22
2022-08-09T00:26:56.007Z,102328.41
2022-08-09T00:30:10.381Z,102324.25
2022-08-09T00:32:13.117Z,102331.75
2022-08-09T00:34:53.625Z,102325.19
2022-08-09T00:37:22.882Z,102324.28
2022-08-09T00:40:12.322Z,102323.81
2022-08-09T00:44:26.374Z,102326.47
2022-08-09T00:45:28.561Z,102327.84
2022-08-09T00:47:56.581Z,102326.25
2022-08-09T00:50:24.641Z,102320.94
2022-08-09T00:52:54.375Z,102322.00
2022-08-09T00:56:03.342Z,102323.38
2022-08-09T00:58:14.708Z,102323.25
2022-08-09T01:00:59.159Z,102314.06
2022-08-09T01:03:46.351Z,102331.25
2022-08-09T01:06:54.747Z,102329.03
2022-08-09T01:09:36.801Z,102329.75
2022-08-09T01:12:14.874Z,102327.78
2022-08-09T01:14:52.656Z,102328.94
2022-08-09T01:17:30.407Z,102330.41
2022-08-09T01:20:06.332Z,102339.50
2022-08-09T01:22:58.104Z,102332.84
2022-08-09T01:25:48.798Z,102332.59
2022-08-09T01:28:22.846Z,102335.81
2022-08-09T01:30:58.951Z,102335.81
2022-08-09T01:33:31.416Z,102340.53
2022-08-09T01:36:04.856Z,102338.91
2022-08-09T01:38:39.886Z,102343.63
2022-08-09T01:41:25.927Z,102338.78
2022-08-09T01:43:58.250Z,102342.69
2022-08-09T01:46:31.688Z,102334.63
2022-08-09T01:49:10.164Z,102327.03
2022-08-09T01:51:44.627Z,102332.56
2022-08-09T01:54:25.231Z,102327.25
2022-08-09T01:56:59.143Z,102325.00
2022-08-09T01:59:40.873Z,102323.16
2022-08-09T02:02:21.951Z,102330.59
2022-08-09T02:04:52.208Z,102330.25
2022-08-09T02:08:35.764Z,102324.75
2022-08-09T02:10:18.425Z,102322.22
2022-08-09T02:13:00.457Z,102332.91
2022-08-09T02:15:49.627Z,102326.69
2022-08-09T02:18:23.750Z,102325.09
2022-08-09T02:20:56.682Z,102319.25
2022-08-09T02:23:32.013Z,102322.78
2022-08-09T02:26:25.156Z,102324.28
2022-08-09T02:28:59.983Z,102339.88
2022-08-09T02:31:34.266Z,102332.16
2022-08-09T02:34:13.741Z,102336.41
2022-08-09T02:36:59.382Z,102332.06
2022-08-09T02:39:33.433Z,102332.06
2022-08-09T02:42:06.620Z,102326.09
2022-08-09T02:44:38.027Z,102321.94
2022-08-09T02:47:12.804Z,102322.13
2022-08-09T02:49:47.501Z,102316.16
2022-08-09T02:52:38.373Z,102324.63
2022-08-09T02:55:20.002Z,102318.66
2022-08-09T02:58:32.910Z,102324.38
2022-08-09T03:00:57.558Z,102307.59
2022-08-09T03:04:05.805Z,102309.88
2022-08-09T03:06:21.463Z,102313.94
2022-08-09T03:08:53.129Z,102317.59
2022-08-09T03:11:30.056Z,102314.69
2022-08-09T03:14:14.257Z,102321.78
2022-08-09T03:16:48.192Z,102317.31
2022-08-09T03:19:58.336Z,102325.09
2022-08-09T03:22:12.077Z,102315.44
2022-08-09T03:25:05.797Z,102320.44
2022-08-09T03:27:44.981Z,102311.72
2022-08-09T03:30:29.350Z,102319.06
2022-08-09T03:33:12.893Z,102319.25
2022-08-09T03:36:13.510Z,102327.69
2022-08-09T03:38:41.820Z,102320.59
2022-08-09T03:41:15.236Z,102320.59
2022-08-09T03:44:03.777Z,102313.47
2022-08-09T03:46:34.275Z,102316.41
2022-08-09T03:49:09.135Z,102323.50
2022-08-09T03:51:56.612Z,102320.75
2022-08-09T03:54:32.330Z,102325.47
2022-08-09T03:57:04.439Z,102320.41
2022-08-09T03:59:53.668Z,102324.13
2022-08-09T04:02:26.530Z,102325.41
2022-08-09T04:04:55.857Z,102329.44
2022-08-09T04:07:47.083Z,102323.16
2022-08-09T04:10:14.153Z,102328.66
2022-08-09T04:12:49.875Z,102335.06
2022-08-09T04:15:38.785Z,102327.31
2022-08-09T04:18:08.089Z,102333.13
2022-08-09T04:20:36.698Z,102337.19
2022-08-09T04:23:09.696Z,102344.28
2022-08-09T04:25:38.559Z,102341.53
2022-08-09T04:28:08.944Z,102336.69
2022-08-09T04:30:42.769Z,102344.47
2022-08-09T04:33:13.233Z,102350.66
2022-08-09T04:35:42.598Z,102346.75
2022-08-09T04:38:12.397Z,102354.69
2022-08-09T04:40:56.226Z,102351.13
2022-08-09T04:43:25.954Z,102359.22
2022-08-09T04:45:54.519Z,102360.72
2022-08-09T04:48:23.926Z,102363.13
2022-08-09T04:51:01.904Z,102361.38
2022-08-09T04:53:31.939Z,102365.28
2022-08-09T04:56:02.555Z,102365.94
2022-08-09T04:58:33.903Z,102363.50
2022-08-09T05:01:02.723Z,102360.41
2022-08-09T05:03:42.756Z,102363.50
2022-08-09T05:06:26.717Z,102366.59
2022-08-09T05:09:00.310Z,102374.50
2022-08-09T05:11:30.630Z,102372.56
2022-08-09T05:14:05.774Z,102377.59
2022-08-09T05:16:58.301Z,102374.22
2022-08-09T05:19:26.177Z,102378.94
2022-08-09T05:22:00.329Z,102380.06
2022-08-09T05:24:39.476Z,102377.16
2022-08-09T05:27:10.016Z,102381.22
2022-08-09T05:29:41.679Z,102369.38
2022-08-09T05:32:09.774Z,102380.06
2022-08-09T05:34:38.721Z,102381.84
2022-08-09T05:37:14.015Z,102385.88
2022-08-09T05:39:44.595Z,102382.47
2022-08-09T05:42:18.023Z,102383.75
2022-08-09T05:44:51.530Z,102381.50
2022-08-09T05:47:21.682Z,102381.63
2022-08-09T05:50:30.096Z,102378.06
2022-08-09T05:52:39.573Z,102372.91
2022-08-09T05:55:18.165Z,102373.72
2022-08-09T05:57:55.360Z,102383.56
2022-08-09T06:00:28.816Z,102384.03
2022-08-09T06:02:58.236Z,102383.41
2022-08-09T06:05:31.160Z,102380.94
2022-08-09T06:08:18.969Z,102382.44
2022-08-09T06:10:49.841Z,102384.03
2022-08-09T06:13:20.723Z,102388.09
2022-08-09T06:15:51.039Z,102385.94
2022-08-09T06:18:24.868Z,102386.72
2022-08-09T06:20:57.121Z,102386.31
2022-08-09T06:23:57.357Z,102384.63
2022-08-09T06:26:20.920Z,102384.13
2022-08-09T06:28:50.166Z,102393.09
2022-08-09T06:31:30.509Z,102395.03
2022-08-09T06:34:02.575Z,102387.50
2022-08-09T06:36:31.774Z,102391.94
2022-08-09T06:39:02.430Z,102393.13
2022-08-09T06:41:58.870Z,102394.03
2022-08-09T06:44:21.402Z,102391.81
2022-08-09T06:46:55.308Z,102390.28
2022-08-09T06:49:44.573Z,102384.19
2022-08-09T06:52:15.638Z,102386.44
2022-08-09T06:54:44.381Z,102389.66
2022-08-09T06:57:14.311Z,102393.03
2022-08-09T07:00:52.719Z,102394.66
2022-08-09T07:02:32.193Z,102394.63
2022-08-09T07:05:00.895Z,102398.38
2022-08-09T07:08:00.721Z,102393.84
2022-08-09T07:10:22.545Z,102398.72
2022-08-09T07:12:57.859Z,102388.06
2022-08-09T07:15:53.967Z,102386.78
2022-08-09T07:18:15.344Z,102398.28
2022-08-09T07:20:44.536Z,102393.84
2022-08-09T07:23:18.206Z,102393.03
2022-08-09T07:25:47.875Z,102398.56
2022-08-09T07:29:08.156Z,102393.63
2022-08-09T07:31:29.385Z,102389.00
2022-08-09T07:34:08.432Z,102393.44
2022-08-09T07:36:49.318Z,102383.84
2022-08-09T07:39:41.300Z,102387.28
2022-08-09T07:42:11.708Z,102387.69
2022-08-09T07:44:52.043Z,102385.88
2022-08-09T07:52:04.804Z,102388.91
2022-08-09T07:54:32.084Z,102388.63
2022-08-09T07:57:14.906Z,102382.09
2022-08-09T08:00:02.633Z,102389.47
2022-08-09T08:03:01.991Z,102388.97
2022-08-09T08:05:39.278Z,102399.16
2022-08-09T08:09:02.122Z,102388.66
2022-08-09T08:12:27.569Z,102395.19
2022-08-09T08:15:52.722Z,102405.34
2022-08-09T08:18:47.136Z,102402.69
2022-08-09T08:21:16.110Z,102391.13
2022-08-09T08:24:12.181Z,102404.31
2022-08-09T08:26:55.770Z,102401.63
2022-08-09T08:29:48.587Z,102395.72
2022-08-09T08:42:18.024Z,102407.06
2022-08-09T08:44:58.545Z,102401.50
2022-08-09T08:47:27.798Z,102395.94
2022-08-09T08:49:58.339Z,102395.94
2022-08-09T08:55:23.520Z,102409.53
2022-08-09T08:57:56.489Z,102403.09
2022-08-09T09:00:30.455Z,102397.53
2022-08-09T09:03:11.121Z,102397.09
2022-08-09T09:06:01.199Z,102395.13
2022-08-09T09:08:37.765Z,102384.75
2022-08-09T09:11:17.434Z,102390.69
2022-08-09T09:13:56.418Z,102398.66
2022-08-09T09:16:32.233Z,102388.63
2022-08-09T09:19:37.764Z,102389.34
2022-08-09T09:22:04.025Z,102389.25
2022-08-09T09:24:37.195Z,102396.09
2022-08-09T09:27:08.577Z,102399.66
2022-08-09T09:30:10.636Z,102403.22
2022-08-09T09:32:35.131Z,102396.41
2022-08-09T09:35:09.053Z,102393.84
2022-08-09T09:37:40.382Z,102398.13
2022-08-09T09:40:10.281Z,102403.19
2022-08-09T09:42:45.995Z,102403.19
2022-08-09T09:45:26.720Z,102394.38
2022-08-09T09:47:59.655Z,102391.66
2022-08-09T09:50:49.342Z,102398.84
2022-08-09T09:53:21.122Z,102401.34
2022-08-09T09:56:05.135Z,102414.88
2022-08-09T09:58:46.049Z,102409.28
2022-08-09T10:01:37.625Z,102410.84
2022-08-09T10:04:16.028Z,102409.50
2022-08-09T10:06:51.607Z,102397.91
2022-08-09T10:09:23.823Z,102402.66
2022-08-09T10:12:14.887Z,102398.56
2022-08-09T10:14:48.597Z,102409.44
2022-08-09T10:17:50.667Z,102400.59
2022-08-09T10:20:32.256Z,102395.88
2022-08-09T10:23:17.232Z,102401.41
2022-08-09T10:26:06.998Z,102402.00
2022-08-09T10:28:37.548Z,102394.59
2022-08-09T10:34:11.161Z,102400.72
2022-08-09T10:36:45.589Z,102386.09
2022-08-09T10:39:15.723Z,102388.97
2022-08-09T10:41:46.217Z,102389.84
2022-08-09T10:44:19.542Z,102389.09
2022-08-09T10:48:16.651Z,102381.19
2022-08-09T10:50:30.787Z,102383.19
2022-08-09T10:53:10.562Z,102392.53
2022-08-09T10:55:58.073Z,102392.31
2022-08-09T10:58:34.511Z,102385.69
2022-08-09T11:03:06.627Z,102381.38
2022-08-09T11:04:20.080Z,102384.06
2022-08-09T11:07:56.886Z,102374.03
2022-08-09T11:10:56.580Z,102392.03
2022-08-09T11:13:54.142Z,102387.53
2022-08-09T11:16:39.194Z,102380.84
2022-08-09T11:19:11.245Z,102375.47
2022-08-09T11:22:10.322Z,102375.31
2022-08-09T11:25:10.353Z,102373.41
2022-08-09T11:28:02.940Z,102369.03
2022-08-09T11:30:36.790Z,102368.41
2022-08-09T11:33:13.062Z,102366.81
2022-08-09T11:35:49.603Z,102354.44
2022-08-09T11:38:22.314Z,102358.84
2022-08-09T11:41:03.215Z,102360.88
2022-08-09T11:43:40.791Z,102349.72
2022-08-09T11:46:09.452Z,102345.88
2022-08-09T11:48:49.351Z,102347.41
2022-08-09T11:53:02.177Z,102342.94
2022-08-09T11:54:28.039Z,102342.94
2022-08-09T11:57:56.448Z,102343.69
2022-08-09T12:00:29.915Z,102342.38
2022-08-09T12:03:50.213Z,102332.19
2022-08-09T12:05:49.889Z,102337.63
2022-08-09T12:08:22.082Z,102341.22
2022-08-09T12:10:53.675Z,102332.31
2022-08-09T12:14:07.941Z,102329.59
2022-08-09T12:16:37.748Z,102329.91
2022-08-09T12:19:09.589Z,102332.44
2022-08-09T12:21:48.439Z,102319.06
2022-08-09T12:24:22.342Z,102314.13
2022-08-09T12:28:59.481Z,102324.34
2022-08-09T12:30:02.102Z,102313.78
2022-08-09T12:32:42.426Z,102310.09
2022-08-09T12:35:17.025Z,102312.34
2022-08-09T12:37:51.818Z,102299.88
2022-08-09T12:40:27.482Z,102302.16
2022-08-09T12:42:57.017Z,102301.09
2022-08-09T12:45:34.005Z,102303.91
2022-08-09T12:48:10.802Z,102301.34
2022-08-09T12:50:56.504Z,102290.00
2022-08-09T12:53:36.691Z,102292.53
2022-08-09T12:56:14.626Z,102303.81
2022-08-09T12:59:12.306Z,102293.50
2022-08-09T13:01:48.997Z,102288.44
2022-08-09T13:04:36.954Z,102284.84
2022-08-09T13:07:14.368Z,102294.16
2022-08-09T13:09:55.081Z,102293.97
2022-08-09T13:12:28.370Z,102291.59
2022-08-09T13:15:05.071Z,102294.06
2022-08-09T13:18:03.642Z,102279.59
2022-08-09T13:20:37.911Z,102277.84
2022-08-09T13:24:42.563Z,102275.38
2022-08-09T13:26:41.782Z,102275.00
2022-08-09T13:29:12.957Z,102270.75
2022-08-09T13:32:20.336Z,102271.78
2022-08-09T13:34:50.161Z,102266.97
2022-08-09T13:37:51.445Z,102264.88
2022-08-09T13:41:50.540Z,102261.59
2022-08-09T13:42:58.818Z,102255.63
2022-08-09T13:45:32.584Z,102258.47
2022-08-09T13:48:15.546Z,102262.09
2022-08-09T13:50:44.999Z,102253.38
2022-08-09T13:53:16.620Z,102249.78
2022-08-09T13:55:44.730Z,102256.00
2022-08-09T13:58:15.731Z,102234.91
2022-08-09T14:00:49.823Z,102235.69
2022-08-09T14:04:05.487Z,102240.66
2022-08-09T14:06:19.321Z,102233.44
2022-08-09T14:08:54.330Z,102236.72
2022-08-09T14:11:23.113Z,102242.38
2022-08-09T14:14:22.123Z,102248.34
2022-08-09T14:16:40.232Z,102240.66
2022-08-09T14:19:08.184Z,102237.72
2022-08-09T14:21:37.495Z,102237.84
2022-08-09T14:24:18.303Z,102243.16
2022-08-09T14:26:51.793Z,102240.44
2022-08-09T14:30:04.271Z,102238.44
2022-08-09T14:32:11.404Z,102248.34
2022-08-09T14:34:42.037Z,102228.25
2022-08-09T14:37:11.401Z,102231.63
2022-08-09T14:39:48.011Z,102232.75
2022-08-09T14:42:30.724Z,102233.66
2022-08-09T14:46:46.095Z,102231.31
2022-08-09T14:47:58.495Z,102216.06
2022-08-09T14:50:28.830Z,102217.28
2022-08-09T14:52:58.040Z,102224.53
2022-08-09T14:55:32.800Z,102226.91
2022-08-09T14:58:02.953Z,102224.19
2022-08-09T15:00:31.957Z,102225.75
2022-08-09T15:03:01.286Z,102225.09
2022-08-09T15:05:29.483Z,102222.72
2022-08-09T15:07:59.200Z,102222.38
2022-08-09T15:10:27.170Z,102226.31
2022-08-09T15:12:55.967Z,102220.91
2022-08-09T15:15:24.845Z,102219.88
2022-08-09T15:17:56.860Z,102210.72
2022-08-09T15:21:56.461Z,102222.44
2022-08-09T15:24:01.179Z,102222.25
2022-08-09T15:26:05.029Z,102224.06
2022-08-09T15:28:36.914Z,102221.63
2022-08-09T15:31:17.979Z,102226.25
2022-08-09T15:34:27.516Z,102218.81
2022-08-09T15:36:34.735Z,102218.63
2022-08-09T15:39:04.780Z,102223.09
2022-08-09T15:41:33.941Z,102226.22
2022-08-09T15:44:02.383Z,102216.66
2022-08-09T15:46:32.828Z,102215.78
2022-08-09T15:49:20.601Z,102217.59
2022-08-09T15:52:04.630Z,102213.00
2022-08-09T15:54:48.929Z,102214.72
2022-08-09T15:57:19.099Z,102213.41
2022-08-09T16:00:03.204Z,102211.31
2022-08-09T16:02:31.073Z,102208.16
2022-08-09T16:04:58.957Z,102200.84
2022-08-09T16:07:30.479Z,102203.63
2022-08-09T16:10:38.814Z,102199.34
2022-08-09T16:13:01.019Z,102200.03
2022-08-09T16:16:12.274Z,102205.50
2022-08-09T16:18:16.917Z,102194.03
2022-08-09T16:20:46.667Z,102193.22
2022-08-09T16:23:14.864Z,102191.72
2022-08-09T16:25:49.744Z,102193.47
2022-08-09T16:28:17.871Z,102190.91
2022-08-09T16:30:58.822Z,102189.72
2022-08-09T16:33:30.937Z,102189.88
2022-08-09T16:36:11.709Z,102181.66
2022-08-09T16:38:44.351Z,102185.84
2022-08-09T16:41:39.334Z,102198.44
2022-08-09T16:44:08.877Z,102188.38
2022-08-09T16:46:36.857Z,102204.06
2022-08-09T16:49:16.902Z,102191.31
2022-08-09T16:51:55.259Z,102204.16
2022-08-09T16:54:34.055Z,102188.88
2022-08-09T16:57:04.306Z,102188.13
2022-08-09T16:59:34.660Z,102190.44
2022-08-09T17:02:03.058Z,102194.97
2022-08-09T17:04:33.441Z,102191.97
2022-08-09T17:08:41.483Z,102190.03
2022-08-09T17:09:49.323Z,102183.03
2022-08-09T17:12:19.913Z,102193.69
2022-08-09T17:14:50.680Z,102193.72
2022-08-09T17:17:26.884Z,102198.03
2022-08-09T17:20:28.496Z,102194.75
2022-08-09T17:22:50.254Z,102200.56
2022-08-09T17:25:20.187Z,102205.59
2022-08-09T17:27:53.867Z,102207.34
2022-08-09T17:30:25.665Z,102218.63
2022-08-09T17:32:55.050Z,102205.88
2022-08-09T17:35:28.941Z,102211.09
2022-08-09T17:38:11.659Z,102213.19
2022-08-09T17:40:42.766Z,102216.44
2022-08-09T17:43:34.657Z,102211.75
2022-08-09T17:46:07.095Z,102227.06
2022-08-09T17:48:38.983Z,102219.22
2022-08-09T17:51:18.821Z,102220.16
2022-08-09T17:53:51.903Z,102213.81
2022-08-09T17:56:27.647Z,102219.16
2022-08-09T17:59:11.562Z,102216.41
2022-08-09T18:02:03.702Z,102220.78
2022-08-09T18:04:28.539Z,102223.59
2022-08-09T18:06:57.356Z,102222.44
2022-08-09T18:09:40.332Z,102225.25
2022-08-09T18:12:17.216Z,102229.69
2022-08-09T18:14:54.480Z,102232.50
2022-08-09T18:17:27.123Z,102233.34
2022-08-09T18:20:57.011Z,102237.78
2022-08-09T18:23:04.717Z,102242.31
2022-08-09T18:25:50.329Z,102235.09
2022-08-09T18:30:37.645Z,102236.75
2022-08-09T18:31:10.908Z,102242.41
2022-08-09T18:33:40.206Z,102242.00
2022-08-09T18:36:14.226Z,102243.63
2022-08-09T18:38:58.792Z,102247.66
2022-08-09T18:41:29.220Z,102250.47
2022-08-09T18:44:03.164Z,102248.47
2022-08-09T18:46:46.177Z,102251.31
2022-08-09T18:49:21.448Z,102256.97
2022-08-09T18:51:54.972Z,102253.38
2022-08-09T18:54:29.508Z,102253.00
2022-08-09T18:57:05.775Z,102250.63
2022-08-09T18:59:49.167Z,102251.88
2022-08-09T19:02:30.522Z,102257.06
2022-08-09T19:05:04.343Z,102253.09
2022-08-09T19:08:04.103Z,102264.72
2022-08-09T19:10:39.016Z,102269.09
2022-08-09T19:13:21.953Z,102271.50
2022-08-09T19:15:52.622Z,102274.28
2022-08-09T19:18:33.309Z,102273.84
2022-08-09T19:21:05.507Z,102273.47
2022-08-09T19:24:31.981Z,102278.63
2022-08-09T19:26:29.504Z,102271.84
2022-08-09T19:29:02.411Z,102272.69
2022-08-09T19:31:44.281Z,102281.44
2022-08-09T19:34:21.922Z,102277.44
2022-08-09T19:36:51.983Z,102280.63
2022-08-09T19:39:20.827Z,102287.00
2022-08-09T19:42:08.470Z,102289.00
2022-08-09T19:44:36.956Z,102280.63
2022-08-09T19:47:05.062Z,102278.63
2022-08-09T19:50:06.677Z,102283.41
2022-08-09T19:52:22.634Z,102280.19
2022-08-09T19:54:52.057Z,102292.16
2022-08-09T19:57:25.763Z,102280.16
2022-08-09T19:59:59.229Z,102284.50
2022-08-09T20:04:07.014Z,102281.72
2022-08-09T20:05:24.854Z,102286.88
2022-08-09T20:07:57.152Z,102284.09
2022-08-09T20:10:34.073Z,102282.88
2022-08-09T20:13:05.463Z,102285.63
2022-08-09T20:16:38.148Z,102277.63
2022-08-09T20:18:22.785Z,102278.34
2022-08-09T20:20:57.988Z,102269.56
2022-08-09T20:23:39.245Z,102282.19
2022-08-09T20:26:09.969Z,102273.34
2022-08-09T20:28:49.946Z,102283.66
2022-08-09T20:31:18.278Z,102279.59
2022-08-09T20:33:46.663Z,102279.97
2022-08-09T20:36:21.808Z,102283.50
2022-08-09T20:39:28.338Z,102278.28
2022-08-09T20:41:43.801Z,102286.53
2022-08-09T20:44:11.945Z,102282.50
2022-08-09T20:46:43.139Z,102280.06
2022-08-09T20:49:13.029Z,102274.47
2022-08-09T20:51:43.925Z,102273.19
2022-08-09T20:54:17.031Z,102276.34
2022-08-09T20:56:49.800Z,102279.47
2022-08-09T21:00:19.133Z,102279.88
2022-08-09T21:02:11.414Z,102275.06
2022-08-09T21:05:51.767Z,102275.81
2022-08-09T21:07:40.743Z,102278.19
2022-08-09T21:10:12.402Z,102272.94
2022-08-09T21:12:40.315Z,102265.75
2022-08-09T21:15:12.588Z,102281.94
2022-08-09T21:18:22.980Z,102281.53
2022-08-09T21:20:30.045Z,102286.59
2022-08-09T21:23:00.407Z,102285.34
2022-08-09T21:25:56.311Z,102284.94
2022-08-09T21:28:35.212Z,102287.31
2022-08-09T21:31:19.414Z,102285.72
2022-08-09T21:33:56.810Z,102293.09
2022-08-09T21:36:28.997Z,102288.59
2022-08-09T21:38:59.588Z,102295.69
2022-08-09T21:42:05.399Z,102295.63
2022-08-09T21:44:33.068Z,102292.31
2022-08-09T21:47:03.570Z,102300.13
2022-08-09T21:49:39.590Z,102298.44
2022-08-09T21:52:16.525Z,102291.22
2022-08-09T21:54:49.697Z,102305.47
2022-08-09T21:57:38.229Z,102301.41
2022-08-09T22:00:17.490Z,102304.50
2022-08-09T22:02:58.934Z,102304.38
2022-08-09T22:05:36.771Z,102312.28
2022-08-09T22:08:13.965Z,102308.22
2022-08-09T22:11:05.176Z,102301.75
2022-08-09T22:13:35.465Z,102306.44
2022-08-09T22:16:07.492Z,102310.47
2022-08-09T22:18:37.128Z,102307.34
2022-08-09T22:21:10.035Z,102309.41
2022-08-09T22:23:59.011Z,102317.75
2022-08-09T22:26:34.706Z,102319.44
2022-08-09T22:29:07.270Z,102320.28
2022-08-09T22:31:35.658Z,102323.50
2022-08-09T22:34:03.529Z,102322.69
2022-08-09T22:36:46.141Z,102328.25
2022-08-09T22:39:20.710Z,102327.47
2022-08-09T22:42:06.064Z,102330.97
2022-08-09T22:44:45.556Z,102323.31
2022-08-09T22:48:15.361Z,102336.41
2022-08-09T22:50:01.676Z,102327.66
2022-08-09T22:52:29.649Z,102326.41
2022-08-09T22:54:57.720Z,102326.34
2022-08-09T22:57:35.480Z,102325.06
2022-08-09T23:00:04.152Z,102320.56
2022-08-09T23:02:34.041Z,102328.81
2022-08-09T23:05:02.428Z,102329.03
2022-08-09T23:08:21.820Z,102324.84
2022-08-09T23:10:43.662Z,102326.91
2022-08-09T23:13:13.774Z,102328.38
2022-08-09T23:15:41.819Z,102330.66
2022-08-09T23:18:09.792Z,102326.50
2022-08-09T23:20:37.671Z,102332.34
2022-08-09T23:23:05.640Z,102326.94
2022-08-09T23:25:33.711Z,102324.88
2022-08-09T23:28:15.765Z,102328.25
2022-08-09T23:30:51.888Z,102318.63
2022-08-09T23:33:20.493Z,102324.16
2022-08-09T23:36:06.546Z,102326.50
2022-08-09T23:38:36.046Z,102330.44
2022-08-09T23:41:27.990Z,102320.06
2022-08-09T23:43:57.253Z,102316.88
2022-08-09T23:46:26.608Z,102322.69
2022-08-09T23:48:54.574Z,102313.56
2022-08-09T23:51:22.633Z,102318.41
2022-08-09T23:53:52.618Z,102318.75
2022-08-09T23:56:53.296Z,102316.78
2022-08-09T23:59:12.053Z,102311.16
